Flight Track Log - Related Links

Times and Time Zones

All times are in EDT time to prevent confusion due to time zone crossing. See the ASQ6115 flight status page for this flight to view local times or setup timezone preferences in your user account.


Time Position Orientation Groundspeed Altitude Reporting Facility
EDT Latitude Longitude Course Direction KTS MPH feet Rate Location/Type
Mon 09:00:23 AM 39.2833 -94.7333 41° Northeast 162 186 1,600  Level Kansas City TRACON
Mon 09:01:11 AM 39.2528 -94.7328 179° South 172 198 3,200 1,800 Climbing Kansas City Center
Mon 09:02:13 AM 39.1983 -94.6981 154° Southeast 256 295 4,900 2,098 Climbing Kansas City Center
Mon 09:03:00 AM 39.4212 -94.5485 44° Northeast  Level FlightAware Approximate
Mon 09:03:14 AM 39.2019 -94.6064 87° East 278 320 7,500  Level Kansas City Center
Mon 09:04:00 AM 39.4771 -94.4834 41° Northeast  Level FlightAware Approximate
Mon 09:04:16 AM 39.2731 -94.5453 34° Northeast 278 320 10,300  Level Kansas City Center
Mon 09:05:00 AM 39.5335 -94.4189 41° Northeast  Level FlightAware Approximate
Mon 09:05:17 AM 39.3414 -94.4883 33° Northeast 302 348 11,800  Level Kansas City Center
Mon 09:06:18 AM 39.4278 -94.4136 34° Northeast 332 382 13,800 1,756 Climbing Kansas City Center
Mon 09:07:20 AM 39.5014 -94.3397 38° Northeast 347 399 15,400 1,317 Climbing Kansas City Center
Mon 09:08:21 AM 39.5764 -94.2628 38° Northeast 358 412 16,500 1,171 Climbing Kansas City Center
Mon 09:09:23 AM 39.6703 -94.1700 37° Northeast 378 435 17,800 1,463 Climbing Kansas City Center
Mon 09:10:24 AM 39.7508 -94.0892 38° Northeast 382 440 19,500 1,902 Climbing Kansas City Center
Mon 09:11:26 AM 39.8439 -93.9942 38° Northeast 380 437 21,700 1,902 Climbing Kansas City Center
Mon 09:12:27 AM 39.9022 -93.8811 56° Northeast 394 453 23,400 1,805 Climbing Kansas City Center
Mon 09:13:29 AM 39.9386 -93.7481 70° East 393 452 25,400 1,854 Climbing Kansas City Center
Mon 09:14:30 AM 39.9758 -93.6197 69° East 385 443 27,200 1,610 Climbing Kansas City Center
Mon 09:15:32 AM 40.0100 -93.4889 71° East 384 442 28,700 1,561 Climbing Kansas City Center
Mon 09:16:33 AM 40.0450 -93.3597 70° East 381 438 30,400 1,463 Climbing Kansas City Center
Mon 09:17:35 AM 40.0789 -93.2317 71° East 378 435 31,700 1,113 Climbing Kansas City Center
Mon 09:18:37 AM 40.1222 -93.0728 70° East 387 445 32,700 634 Climbing Kansas City Center
Mon 09:19:38 AM 40.1600 -92.9336 70° East 405 466 33,000 146 Climbing Kansas City Center
Mon 09:20:40 AM 40.1972 -92.7892 71° East 427 491 33,000  Level Kansas City Center
Mon 09:21:41 AM 40.2467 -92.6083 70° East 460 529 33,000  Level Kansas City Center
Mon 09:22:43 AM 40.2883 -92.4528 71° East 469 540 33,000  Level Kansas City Center
Mon 09:23:44 AM 40.3311 -92.2775 72° East 476 548 33,000  Level Kansas City Center
Mon 09:24:46 AM 40.3728 -92.1144 71° East 475 547 33,000  Level Kansas City Center
Mon 09:25:48 AM 40.4139 -91.9539 71° East 472 543 33,000  Level Kansas City Center
Mon 09:26:16 AM 40.4392 -91.8564 71° East 472 543 33,000  Level Chicago Center
Mon 09:26:49 AM 40.4556 -91.7908 72° East 474 545 33,000  Level Kansas City Center
Mon 09:27:51 AM 40.5056 -91.5931 72° East 480 552 33,000  Level Kansas City Center
Mon 09:28:21 AM 40.5217 -91.5261 72° East 482 555 33,000  Level Chicago Center
Mon 09:29:23 AM 40.5664 -91.3597 70° East 485 558 33,000  Level Chicago Center
Mon 09:29:54 AM 40.6006 -91.2633 65° Northeast 486 559 33,000  Level Kansas City Center
Mon 09:30:25 AM 40.6278 -91.1856 65° Northeast 486 559 33,000  Level Chicago Center
Mon 09:31:27 AM 40.6839 -91.0219 66° East 489 563 33,000  Level Chicago Center
Mon 09:32:29 AM 40.7397 -90.8564 66° East 491 565 33,000  Level Chicago Center
Mon 09:33:31 AM 40.7961 -90.6914 66° East 493 567 33,000  Level Chicago Center
Mon 09:34:33 AM 40.8636 -90.4950 66° East 485 558 33,000  Level Chicago Center
Mon 09:35:35 AM 40.9197 -90.3256 66° East 501 577 33,000 -194 Level Chicago Center
Mon 09:36:37 AM 40.9708 -90.1731 66° East 496 571 32,600 -1,597 Descending Chicago Center
Mon 09:37:39 AM 41.0322 -89.9875 66° East 494 568 29,700 -2,661 Descending Chicago Center
Mon 09:38:41 AM 41.0858 -89.8206 67° East 491 565 27,100 -2,516 Descending Chicago Center
Mon 09:39:43 AM 41.1406 -89.6569 66° East 500 575 24,500 -2,016 Descending Chicago Center
Mon 09:40:46 AM 41.1964 -89.4989 65° Northeast 497 572 22,900 -1,824 Descending Chicago Center
Mon 09:41:48 AM 41.2539 -89.3542 62° Northeast 443 510 20,700 -2,323 Descending Chicago Center
Mon 09:42:50 AM 41.3206 -89.1861 62° Northeast 416 479 18,100 -2,323 Descending Chicago Center
Mon 09:43:52 AM 41.3731 -89.0536 62° Northeast 410 472 15,900 -2,226 Descending Chicago Center
Mon 09:44:54 AM 41.4267 -88.9233 61° Northeast 405 466 13,500 -2,129 Descending Chicago Center
Mon 09:45:56 AM 41.4769 -88.7947 62° Northeast 394 453 11,500 -1,210 Descending Chicago Center
Mon 09:46:58 AM 41.5250 -88.6736 62° Northeast 371 427 11,000 -242 Descending Chicago Center
Mon 09:48:00 AM 41.5753 -88.5511 61° Northeast 380 437 11,000 -97 Level Chicago Center
Mon 09:49:02 AM 41.6386 -88.4178 58° Northeast 378 435 10,800 -726 Descending Chicago Center
Mon 09:50:04 AM 41.6903 -88.3294 52° Northeast 305 351 9,500 -1,258 Descending Chicago Center
Mon 09:51:06 AM 41.7400 -88.2436 52° Northeast 296 341 8,200 -1,161 Descending Chicago Center
Mon 09:52:08 AM 41.7900 -88.1594 51° Northeast 298 343 7,100 -581 Descending Chicago Center
Mon 09:53:10 AM 41.8361 -88.0775 53° Northeast 290 334 7,000  Descending Chicago Center
Mon 09:54:10 AM 41.8833 -87.9833 56° Northeast 284 327 7,100  Climbing Chicago TRACON
Mon 09:55:16 AM 41.8833 -87.8667 90° East 246 283 7,000 -47 Descending Chicago TRACON
Mon 09:56:17 AM 41.8847 -87.7906 89° East 228 262 7,000 -244 Level Chicago Center
Mon 09:57:19 AM 41.8833 -87.7122 91° East 216 249 6,500 -774 Descending Chicago Center
Mon 09:58:21 AM 41.8842 -87.6347 89° East 212 244 5,400 -1,016 Descending Chicago Center
Mon 09:59:23 AM 41.9025 -87.5772 67° East 204 235 4,400 -677 Descending Chicago Center
Mon 10:00:25 AM 41.9433 -87.6069 332° Northwest 193 222 4,000 -290 Descending Chicago Center
Mon 10:01:27 AM 41.9600 -87.6897 285° West 192 221 3,800 -581 Descending Chicago Center
Mon 10:02:29 AM 41.9717 -87.7569 283° West 190 219 2,800 -968 Descending Chicago Center

Login

Don't have an account? Register now (free) for customized features, flight alerts, and more!